Time;durP1;ratioP1;P1;durP2;ratioP2;P2;SDS_P1;SDS_P2;PMS_P1;PMS_P2;Temp;Humidity;BMP_temperature;BMP_pressure;BME280_temperature;BME280_humidity;BME280_pressure;Samples;Min_cycle;Max_cycle;Signal;HPM_P1;HPM_P2
2023/05/12 00:04:02;;;;;;;15.30;11.80;;;;;;;13.06;68.37;99658.94;10432838;28;20057;-58
2023/05/12 00:09:05;;;;;;;18.83;12.75;;;;;;;13.06;68.51;99653.69;10402325;28;20075;-59
2023/05/12 00:14:06;;;;;;;20.38;12.40;;;;;;;13.03;68.67;99653.91;10401039;28;20128;-58
2023/05/12 00:19:08;;;;;;;25.95;14.52;;;;;;;13.06;68.70;99654.53;10404678;28;20057;-58
2023/05/12 00:24:10;;;;;;;18.90;12.55;;;;;;;13.08;68.40;99644.75;10401302;28;20047;-57
2023/05/12 00:29:12;;;;;;;20.60;12.23;;;;;;;13.03;68.55;99648.66;10399958;28;20136;-57
2023/05/12 00:34:14;;;;;;;28.20;15.98;;;;;;;13.10;68.67;99639.38;10399304;28;20080;-57
2023/05/12 00:39:15;;;;;;;20.67;13.52;;;;;;;13.13;68.95;99636.53;10400971;28;20042;-59
2023/05/12 00:44:17;;;;;;;22.02;13.45;;;;;;;13.11;68.19;99641.88;10433513;28;20149;-57
2023/05/12 00:49:20;;;;;;;18.75;12.68;;;;;;;13.03;68.45;99632.91;10397635;28;20534;-59
2023/05/12 00:54:22;;;;;;;15.32;10.88;;;;;;;12.93;68.60;99640.63;10416913;28;20430;-58
2023/05/12 00:59:24;;;;;;;23.92;14.93;;;;;;;12.85;69.01;99641.19;10401179;28;20049;-59
2023/05/12 01:04:26;;;;;;;17.77;11.27;;;;;;;12.80;69.21;99630.19;10403184;28;20392;-58
2023/05/12 01:09:28;;;;;;;25.77;14.95;;;;;;;12.89;69.30;99631.28;10409340;28;20037;-58
2023/05/12 01:14:30;;;;;;;18.08;11.25;;;;;;;12.95;69.12;99625.59;10440011;28;20037;-58
2023/05/12 01:19:51;;;;;;;15.27;10.05;;;;;;;12.88;68.62;99622.56;10405225;28;20128;-58
2023/05/12 01:24:56;;;;;;;13.27;9.07;;;;;;;12.85;68.99;99622.81;10431139;28;20049;-59
2023/05/12 01:30:02;;;;;;;12.75;8.63;;;;;;;13.02;68.78;99620.72;10403756;28;20038;-59
2023/05/12 01:35:07;;;;;;;13.05;8.63;;;;;;;13.02;68.78;99618.94;10404898;28;20048;-59
2023/05/12 01:40:12;;;;;;;10.40;7.38;;;;;;;12.98;68.62;99625.38;10404828;28;20095;-58
2023/05/12 01:45:13;;;;;;;10.18;7.32;;;;;;;12.89;68.49;99626.03;10407239;28;20053;-58
2023/05/12 01:50:15;;;;;;;10.60;6.72;;;;;;;12.81;68.79;99621.38;10404342;28;20056;-59
2023/05/12 01:55:19;;;;;;;12.77;7.97;;;;;;;12.89;68.76;99626.03;10419208;28;20073;-59
2023/05/12 02:00:26;;;;;;;9.48;7.28;;;;;;;12.86;68.97;99629.72;10418047;28;20045;-58
2023/05/12 02:05:30;;;;;;;13.15;9.10;;;;;;;12.86;69.09;99634.97;10444573;28;20413;-59
2023/05/12 02:10:34;;;;;;;10.23;7.65;;;;;;;12.75;69.35;99632.31;10445331;28;20551;-59
2023/05/12 02:15:36;;;;;;;10.65;7.57;;;;;;;12.73;69.20;99636.00;10410425;28;20564;-59
2023/05/12 02:20:38;;;;;;;8.65;6.50;;;;;;;12.60;69.48;99637.84;10411594;28;20056;-59
2023/05/12 02:25:40;;;;;;;8.30;5.93;;;;;;;12.56;69.43;99628.50;10412075;28;20103;-58
2023/05/12 02:30:47;;;;;;;8.88;5.68;;;;;;;12.52;69.63;99637.53;10417428;28;20766;-59
2023/05/12 02:35:50;;;;;;;11.20;5.47;;;;;;;12.63;69.66;99641.09;10388245;28;20061;-58
2023/05/12 02:40:52;;;;;;;6.28;4.60;;;;;;;12.60;69.26;99636.06;10410427;28;20379;-59
2023/05/12 02:45:55;;;;;;;8.07;4.95;;;;;;;12.49;69.48;99633.38;10422133;28;20049;-59
2023/05/12 02:50:57;;;;;;;7.53;4.60;;;;;;;12.36;69.67;99637.81;10425761;28;20403;-59
2023/05/12 02:55:59;;;;;;;7.90;5.35;;;;;;;12.26;69.90;99634.16;10426608;28;20052;-58
2023/05/12 03:01:01;;;;;;;7.78;4.22;;;;;;;12.26;69.90;99634.16;10408834;28;20045;-58
2023/05/12 03:06:12;;;;;;;7.55;5.07;;;;;;;12.30;70.00;99621.69;10389204;28;20053;-58
2023/05/12 03:11:14;;;;;;;5.93;4.10;;;;;;;12.35;69.84;99630.91;10425453;28;20140;-59
2023/05/12 03:16:17;;;;;;;9.55;4.30;;;;;;;12.28;69.70;99634.03;10401904;28;20152;-59
2023/05/12 03:21:21;;;;;;;10.63;4.10;;;;;;;12.14;70.02;99627.16;10401818;28;20052;-58
2023/05/12 03:26:23;;;;;;;6.25;3.88;;;;;;;12.16;70.41;99630.50;10387212;28;20053;-58
2023/05/12 03:31:24;;;;;;;7.53;4.10;;;;;;;12.17;69.85;99634.81;10413603;28;20128;-59
2023/05/12 03:36:27;;;;;;;6.30;3.60;;;;;;;12.21;70.29;99633.66;10402657;28;20143;-58
2023/05/12 03:41:30;;;;;;;7.43;4.40;;;;;;;12.11;70.54;99643.94;10439501;28;20079;-59
2023/05/12 03:46:32;;;;;;;8.55;4.15;;;;;;;12.01;70.28;99636.81;10400923;28;20037;-59
2023/05/12 03:51:34;;;;;;;6.00;3.90;;;;;;;11.97;70.43;99638.81;10401882;28;20099;-59
2023/05/12 03:56:36;;;;;;;6.40;3.45;;;;;;;12.15;70.14;99634.91;10397679;28;20069;-58
2023/05/12 04:01:38;;;;;;;6.35;3.95;;;;;;;12.20;70.12;99636.38;10399491;28;20128;-59
2023/05/12 04:06:39;;;;;;;7.90;3.97;;;;;;;12.03;70.21;99648.03;10401416;28;20052;-59
2023/05/12 04:11:42;;;;;;;5.15;4.00;;;;;;;11.91;70.65;99654.97;10401665;28;20107;-58
2023/05/12 04:16:44;;;;;;;5.35;3.42;;;;;;;11.93;71.25;99657.50;10399405;28;20570;-58
2023/05/12 04:21:45;;;;;;;5.40;2.70;;;;;;;12.14;71.01;99671.72;10400484;28;20038;-58
2023/05/12 04:26:47;;;;;;;4.50;2.25;;;;;;;12.29;70.54;99681.19;10406996;28;20128;-59
2023/05/12 04:31:49;;;;;;;2.90;1.80;;;;;;;12.24;70.11;99690.25;10399463;28;20461;-59
2023/05/12 04:36:51;;;;;;;5.22;2.00;;;;;;;12.22;70.04;99692.16;10399233;28;20046;-59
2023/05/12 04:41:54;;;;;;;5.38;2.15;;;;;;;12.15;70.11;99705.69;10407227;28;20049;-59
2023/05/12 04:46:56;;;;;;;4.90;1.80;;;;;;;12.23;69.99;99709.56;10416438;28;20593;-59
2023/05/12 04:51:59;;;;;;;3.90;2.10;;;;;;;12.46;69.55;99717.53;10408985;28;20107;-58
2023/05/12 04:57:00;;;;;;;4.40;1.83;;;;;;;12.62;68.97;99727.78;10419715;28;20416;-59
2023/05/12 05:02:02;;;;;;;2.45;1.60;;;;;;;12.52;68.84;99727.56;10423425;28;20041;-59
2023/05/12 05:07:04;;;;;;;3.40;1.92;;;;;;;12.46;68.96;99737.66;10406612;28;20053;-57
2023/05/12 05:12:07;;;;;;;2.85;1.63;;;;;;;12.47;69.12;99741.97;10407369;28;20596;-59
2023/05/12 05:17:11;;;;;;;3.03;1.88;;;;;;;12.43;69.37;99743.97;10438926;28;20050;-59
2023/05/12 05:22:14;;;;;;;3.38;1.70;;;;;;;12.42;69.40;99754.56;10406976;28;20046;-59
2023/05/12 05:27:18;;;;;;;3.47;1.70;;;;;;;12.46;69.34;99758.63;10408277;28;20104;-58
2023/05/12 05:32:20;;;;;;;3.35;1.80;;;;;;;12.70;69.09;99763.00;10405167;28;20520;-59
2023/05/12 05:37:23;;;;;;;3.78;1.55;;;;;;;13.05;68.45;99757.03;10404829;28;20057;-59
2023/05/12 05:42:25;;;;;;;5.90;1.98;;;;;;;13.28;68.42;99759.66;10405281;28;20062;-59
2023/05/12 05:47:27;;;;;;;6.82;1.50;;;;;;;13.41;67.39;99764.84;10438097;28;20107;-59
2023/05/12 05:52:29;;;;;;;2.55;1.70;;;;;;;13.77;67.00;99760.34;10404594;28;20103;-59
2023/05/12 05:57:31;;;;;;;7.55;1.70;;;;;;;14.03;66.67;99763.59;10407514;28;20045;-58
2023/05/12 06:02:33;;;;;;;4.95;3.97;;;;;;;14.29;65.70;99770.31;10405130;28;20466;-59
2023/05/12 06:07:36;;;;;;;8.02;5.22;;;;;;;13.75;66.46;99774.53;10406585;28;20068;-59
2023/05/12 06:12:39;;;;;;;9.13;5.40;;;;;;;13.57;66.67;99783.81;10414041;28;20048;-58
2023/05/12 06:17:41;;;;;;;7.68;5.57;;;;;;;13.66;66.49;99793.59;10403902;28;20494;-59
2023/05/12 06:22:43;;;;;;;6.53;5.40;;;;;;;13.57;66.27;99803.03;10418919;28;20068;-58
2023/05/12 06:27:45;;;;;;;7.53;5.47;;;;;;;13.76;66.30;99803.31;10408439;28;20502;-58
2023/05/12 06:32:46;;;;;;;7.93;5.53;;;;;;;13.70;65.92;99806.41;10399173;28;20135;-58
2023/05/12 06:37:49;;;;;;;11.27;6.32;;;;;;;14.15;65.40;99804.72;10407114;28;20099;-57
2023/05/12 06:42:51;;;;;;;9.05;5.93;;;;;;;15.05;64.51;99809.06;10408995;28;20075;-56
2023/05/12 06:47:54;;;;;;;8.07;5.47;;;;;;;15.02;62.74;99815.41;10407857;28;20045;-57
2023/05/12 06:52:56;;;;;;;9.30;6.15;;;;;;;14.85;64.05;99817.72;10438941;28;20037;-57
2023/05/12 06:57:58;;;;;;;7.07;5.20;;;;;;;14.69;62.94;99818.09;10404401;28;20049;-57
2023/05/12 07:03:00;;;;;;;7.95;4.60;;;;;;;14.65;64.01;99829.81;10400443;28;20046;-57
2023/05/12 07:08:02;;;;;;;6.45;5.07;;;;;;;15.12;62.82;99824.25;10401993;28;20512;-58
2023/05/12 07:13:03;;;;;;;7.68;3.88;;;;;;;15.78;60.73;99828.50;10396512;28;20127;-58
2023/05/12 07:18:05;;;;;;;7.47;4.50;;;;;;;15.71;61.46;99827.34;10397845;28;20144;-58
2023/05/12 07:23:08;;;;;;;6.80;4.15;;;;;;;15.68;60.73;99830.22;10382975;28;20045;-58
2023/05/12 07:28:10;;;;;;;6.65;3.95;;;;;;;15.75;59.96;99839.31;10423810;28;20133;-57
2023/05/12 07:33:12;;;;;;;6.25;3.72;;;;;;;15.79;59.64;99839.91;10396616;28;20095;-57
2023/05/12 07:38:14;;;;;;;5.25;3.40;;;;;;;15.61;59.52;99836.97;10398692;28;20050;-58
2023/05/12 07:43:16;;;;;;;5.65;3.55;;;;;;;16.14;59.17;99838.63;10404719;28;20096;-57
2023/05/12 07:48:18;;;;;;;4.70;3.47;;;;;;;16.51;58.26;99838.19;10400417;28;20474;-58
2023/05/12 07:53:20;;;;;;;5.78;3.58;;;;;;;16.82;58.07;99829.28;10405556;28;20119;-57
2023/05/12 07:58:22;;;;;;;7.25;3.20;;;;;;;16.87;55.48;99835.81;10394376;28;20979;-58
2023/05/12 08:03:24;;;;;;;6.32;3.80;;;;;;;16.42;57.60;99837.13;10396016;28;20080;-57
2023/05/12 08:08:26;;;;;;;6.10;4.05;;;;;;;16.19;58.03;99832.97;10397935;28;20061;-58
2023/05/12 08:13:28;;;;;;;7.88;3.92;;;;;;;16.13;57.73;99844.03;10428970;28;20041;-59
2023/05/12 08:18:30;;;;;;;6.10;3.65;;;;;;;16.45;57.72;99842.16;10396901;28;20085;-59
2023/05/12 08:23:33;;;;;;;4.32;3.50;;;;;;;16.98;56.89;99837.53;10390869;28;20041;-59
2023/05/12 08:28:35;;;;;;;6.90;3.35;;;;;;;17.64;55.53;99831.56;10426152;28;20659;-59
2023/05/12 08:33:37;;;;;;;6.82;3.60;;;;;;;17.65;55.73;99835.88;10399686;28;20052;-58
2023/05/12 08:38:38;;;;;;;6.05;3.17;;;;;;;17.29;54.75;99835.66;10400272;28;20129;-59
2023/05/12 08:43:48;;;;;;;6.82;3.38;;;;;;;16.93;55.03;99839.75;10403982;28;20448;-58
2023/05/12 08:48:52;;;;;;;7.75;3.35;;;;;;;16.60;55.95;99842.66;10413114;28;20076;-58
2023/05/12 08:53:55;;;;;;;6.35;3.40;;;;;;;16.95;55.96;99840.47;10408061;28;20574;-59
2023/05/12 08:58:58;;;;;;;9.18;3.45;;;;;;;17.43;54.56;99849.34;10399085;28;20474;-59
2023/05/12 09:04:00;;;;;;;5.50;3.28;;;;;;;17.60;53.14;99845.22;10394387;28;20049;-59
2023/05/12 09:09:02;;;;;;;6.70;3.30;;;;;;;17.62;52.98;99853.84;10407977;28;20045;-59
2023/05/12 09:14:07;;;;;;;5.95;3.30;;;;;;;17.56;51.27;99842.00;10394631;28;20513;-59
2023/05/12 09:19:10;;;;;;;3.88;2.70;;;;;;;17.61;52.02;99847.72;10401233;28;20041;-59
2023/05/12 09:24:12;;;;;;;5.18;3.08;;;;;;;17.96;52.04;99843.66;10387800;28;20063;-59
2023/05/12 09:29:15;;;;;;;5.35;2.90;;;;;;;18.61;51.54;99838.41;10430669;28;20050;-59
2023/05/12 09:34:35;;;;;;;5.60;2.97;;;;;;;18.90;48.90;99825.03;10407517;28;20045;-59
2023/05/12 09:39:37;;;;;;;5.80;2.97;;;;;;;18.58;50.66;99831.56;10395412;28;20041;-59
2023/05/12 09:44:40;;;;;;;5.13;2.65;;;;;;;19.38;48.87;99825.63;10400698;28;20144;-59
2023/05/12 09:49:45;;;;;;;6.13;2.90;;;;;;;19.48;48.20;99829.88;10407085;28;20044;-59
2023/05/12 09:54:47;;;;;;;5.35;3.05;;;;;;;19.08;48.75;99831.25;10398130;28;20136;-59
2023/05/12 09:59:50;;;;;;;8.02;3.15;;;;;;;18.94;48.97;99832.56;10402536;28;20777;-61
2023/05/12 10:04:57;;;;;;;8.02;2.50;;;;;;;18.48;48.21;99830.78;10435439;28;20141;-58
2023/05/12 10:10:03;;;;;;;6.07;2.70;;;;;;;18.45;47.77;99824.94;10425742;28;20457;-59
2023/05/12 10:15:07;;;;;;;5.50;2.35;;;;;;;18.55;47.45;99823.09;10402223;28;20048;-59
2023/05/12 10:20:10;;;;;;;3.97;2.58;;;;;;;18.95;47.58;99817.50;10409399;28;20096;-58
2023/05/12 10:25:12;;;;;;;4.95;2.70;;;;;;;19.55;45.21;99821.31;10393987;28;20053;-58
2023/05/12 10:30:15;;;;;;;6.32;2.40;;;;;;;19.48;44.69;99813.97;10402178;28;20060;-59
2023/05/12 10:35:17;;;;;;;4.00;2.30;;;;;;;18.97;45.84;99816.34;10403692;28;20060;-59
2023/05/12 10:40:24;;;;;;;5.22;2.72;;;;;;;18.60;46.01;99815.56;10401949;28;20224;-58
2023/05/12 10:45:26;;;;;;;6.97;2.67;;;;;;;18.35;46.58;99821.50;10411403;28;20066;-59
2023/05/12 10:50:29;;;;;;;7.07;2.67;;;;;;;18.18;47.60;99808.97;10401606;28;20076;-59
2023/05/12 10:55:41;;;;;;;8.40;3.15;;;;;;;18.47;47.06;99809.75;10413958;28;20055;-58
2023/05/12 11:00:50;;;;;;;7.10;2.72;;;;;;;18.09;46.34;99813.31;10408466;28;20745;-59
2023/05/12 11:06:01;;;;;;;7.77;2.97;;;;;;;17.84;46.92;99822.66;10419790;28;20049;-58
2023/05/12 11:11:04;;;;;;;6.63;3.00;;;;;;;17.98;47.20;99823.19;10396964;28;20053;-59
2023/05/12 11:16:12;;;;;;;4.82;3.13;;;;;;;18.37;47.33;99830.13;10405110;28;20050;-59
2023/05/12 11:21:14;;;;;;;5.00;2.90;;;;;;;18.71;46.63;99846.34;10395777;28;20046;-59
2023/05/12 11:26:17;;;;;;;6.82;3.00;;;;;;;18.78;47.38;99827.06;10396490;28;20045;-59
2023/05/12 11:31:21;;;;;;;4.75;2.90;;;;;;;19.52;47.22;99829.59;10395009;28;20136;-58
2023/05/12 11:36:23;;;;;;;7.55;3.20;;;;;;;19.58;44.84;99823.69;10401756;28;20053;-58
2023/05/12 11:41:26;;;;;;;5.20;3.42;;;;;;;18.95;46.12;99822.81;10396779;28;20041;-58
2023/05/12 11:46:29;;;;;;;5.82;3.40;;;;;;;17.73;48.60;99836.00;10399260;28;20049;-58
2023/05/12 11:51:31;;;;;;;6.65;3.20;;;;;;;17.50;50.18;99829.34;10393145;28;20128;-59
2023/05/12 11:56:36;;;;;;;4.75;3.28;;;;;;;17.52;50.19;99835.34;10384780;28;20070;-59
2023/05/12 12:01:47;;;;;;;5.88;3.17;;;;;;;17.17;49.62;99837.59;10393041;28;20448;-59
2023/05/12 12:06:49;;;;;;;4.80;2.80;;;;;;;16.95;49.55;99838.66;10393345;28;20406;-59
2023/05/12 12:11:51;;;;;;;6.40;3.00;;;;;;;17.47;49.81;99850.75;10399062;28;20095;-59
2023/05/12 12:16:53;;;;;;;6.18;2.60;;;;;;;17.77;49.24;99852.47;10401420;28;20484;-59
2023/05/12 12:21:56;;;;;;;6.68;3.47;;;;;;;17.72;50.72;99854.69;10391408;28;20140;-58
2023/05/12 12:26:59;;;;;;;9.95;4.43;;;;;;;17.67;52.44;99857.72;10396220;28;20509;-58
2023/05/12 12:32:01;;;;;;;7.97;2.70;;;;;;;17.93;50.11;99858.03;10395428;28;20524;-59
2023/05/12 12:37:04;;;;;;;7.50;2.70;;;;;;;18.29;49.65;99859.97;10398564;28;20042;-59
2023/05/12 12:42:06;;;;;;;10.13;2.78;;;;;;;18.83;48.27;99863.72;10396322;28;20482;-59
2023/05/12 12:47:08;;;;;;;7.10;2.80;;;;;;;18.43;49.30;99861.31;10392835;28;20053;-59
2023/05/12 12:52:11;;;;;;;8.70;3.40;;;;;;;18.17;49.79;99871.66;10392599;28;20504;-59
2023/05/12 12:57:14;;;;;;;5.57;3.25;;;;;;;17.90;50.14;99862.75;10398077;28;20187;-59
2023/05/12 13:02:16;;;;;;;9.27;3.42;;;;;;;17.60;51.21;99883.06;10386948;28;20049;-59
2023/05/12 13:07:18;;;;;;;7.60;3.60;;;;;;;17.56;52.23;99884.31;10378456;28;20037;-59
2023/05/12 13:12:20;;;;;;;7.80;3.80;;;;;;;17.40;52.74;99878.72;10397077;28;20100;-59
2023/05/12 13:17:22;;;;;;;9.60;4.10;;;;;;;17.71;52.99;99872.34;10401200;28;20072;-59
2023/05/12 13:22:27;;;;;;;7.50;3.90;;;;;;;18.12;51.97;99873.88;10386941;28;20468;-58
2023/05/12 13:27:29;;;;;;;8.55;3.90;;;;;;;18.34;51.91;99870.13;10375805;28;20717;-59
2023/05/12 13:32:33;;;;;;;5.18;3.30;;;;;;;18.55;50.80;99866.31;10389599;28;20910;-58
2023/05/12 13:37:36;;;;;;;6.57;3.65;;;;;;;18.95;50.03;99868.66;10404000;28;20060;-59
2023/05/12 13:42:38;;;;;;;7.72;3.58;;;;;;;18.92;49.12;99861.03;10386660;28;20046;-59
2023/05/12 13:47:40;;;;;;;5.50;3.28;;;;;;;18.90;49.24;99865.63;10388581;28;20044;-59
2023/05/12 13:52:42;;;;;;;6.78;3.00;;;;;;;19.36;47.81;99862.91;10388392;28;20049;-59
2023/05/12 13:57:44;;;;;;;5.20;2.97;;;;;;;19.39;47.26;99852.00;10386578;28;21563;-59
2023/05/12 14:02:45;;;;;;;7.72;2.47;;;;;;;20.03;47.05;99859.78;10395424;28;20045;-59
2023/05/12 14:07:48;;;;;;;5.55;2.70;;;;;;;19.94;46.18;99854.56;10391597;28;20072;-59
2023/05/12 14:12:50;;;;;;;4.72;2.70;;;;;;;19.90;46.14;99855.84;10404132;28;20138;-58
2023/05/12 14:17:53;;;;;;;4.90;2.47;;;;;;;19.79;44.77;99862.19;10398200;28;20145;-59
2023/05/12 14:22:55;;;;;;;5.15;2.10;;;;;;;19.74;44.25;99863.63;10399181;28;20053;-58
2023/05/12 14:27:57;;;;;;;6.07;2.30;;;;;;;19.73;44.11;99852.19;10420454;28;20048;-59
2023/05/12 14:33:00;;;;;;;5.75;2.40;;;;;;;19.79;44.30;99866.66;10402177;28;20102;-59
2023/05/12 14:38:06;;;;;;;4.25;2.38;;;;;;;19.86;44.36;99862.44;10433148;28;20779;-59
2023/05/12 14:43:08;;;;;;;4.93;2.17;;;;;;;20.11;44.10;99864.34;10428098;28;20064;-59
2023/05/12 14:48:10;;;;;;;4.45;1.90;;;;;;;19.84;42.89;99861.78;10435522;28;20051;-59
2023/05/12 14:53:12;;;;;;;2.67;1.90;;;;;;;19.91;42.95;99854.88;10414935;28;20049;-58
2023/05/12 14:58:16;;;;;;;6.05;1.90;;;;;;;19.88;42.96;99852.50;10402491;28;20460;-59
2023/05/12 15:03:19;;;;;;;10.27;2.30;;;;;;;19.60;42.56;99857.03;10401316;28;20049;-59
2023/05/12 15:08:22;;;;;;;3.80;1.90;;;;;;;19.52;42.33;99861.44;10424260;28;20044;-58
2023/05/12 15:13:24;;;;;;;3.88;1.92;;;;;;;19.62;43.65;99857.72;10395480;28;20140;-59
2023/05/12 15:18:25;;;;;;;6.32;1.83;;;;;;;19.80;42.77;99863.03;10410675;28;20524;-59
2023/05/12 15:23:27;;;;;;;5.22;1.95;;;;;;;19.80;41.59;99860.38;10392187;28;20042;-59
2023/05/12 15:28:30;;;;;;;6.22;1.80;;;;;;;19.45;42.08;99862.03;10409632;28;20072;-59
2023/05/12 15:33:31;;;;;;;5.93;1.83;;;;;;;19.55;43.18;99863.75;10394951;28;20049;-59
2023/05/12 15:38:33;;;;;;;3.95;1.67;;;;;;;19.21;42.42;99872.38;10398560;28;20103;-59
2023/05/12 15:43:37;;;;;;;6.20;2.08;;;;;;;18.61;45.52;99923.16;10397953;28;20138;-59
2023/05/12 15:48:39;;;;;;;5.80;2.10;;;;;;;17.52;46.04;99908.53;10398971;28;20128;-59
2023/05/12 15:53:41;;;;;;;3.25;2.13;;;;;;;17.19;46.87;99932.59;10388570;28;20055;-59
2023/05/12 15:58:43;;;;;;;4.28;1.90;;;;;;;16.42;48.62;99944.50;10391697;28;20057;-59
2023/05/12 16:03:45;;;;;;;5.20;2.10;;;;;;;16.14;50.16;99952.06;10390127;28;20482;-59
2023/05/12 16:08:47;;;;;;;4.43;2.72;;;;;;;15.59;54.10;99962.78;10392050;28;20889;-58
2023/05/12 16:13:51;;;;;;;6.13;3.17;;;;;;;15.45;55.29;99965.63;10394892;28;20076;-59
2023/05/12 16:18:53;;;;;;;4.25;2.80;;;;;;;15.03;57.40;99958.47;10435162;28;20478;-59
2023/05/12 16:23:55;;;;;;;5.35;3.00;;;;;;;15.00;58.30;99954.28;10426534;28;20048;-60
2023/05/12 16:28:57;;;;;;;5.65;4.25;;;;;;;15.11;58.39;99964.81;10401093;28;20065;-60
2023/05/12 16:34:01;;;;;;;5.25;3.58;;;;;;;15.12;60.08;99970.94;10392034;28;20413;-60
2023/05/12 16:39:03;;;;;;;6.05;2.95;;;;;;;14.95;58.92;99958.22;10403869;28;20524;-59
2023/05/12 16:44:08;;;;;;;5.50;3.10;;;;;;;14.99;59.09;99965.78;10412770;28;20044;-59
2023/05/12 16:49:18;;;;;;;5.72;2.80;;;;;;;14.91;59.94;99962.06;10404519;28;20119;-59
2023/05/12 16:54:19;;;;;;;5.75;3.40;;;;;;;15.01;60.26;99963.03;10408415;28;20469;-60
2023/05/12 16:59:21;;;;;;;5.57;3.58;;;;;;;14.91;60.57;99946.25;10404570;28;20037;-59
2023/05/12 17:04:23;;;;;;;7.28;3.40;;;;;;;14.70;61.39;99947.91;10408627;28;20050;-59
2023/05/12 17:09:25;;;;;;;4.25;3.35;;;;;;;14.84;61.93;99940.63;10406444;28;20133;-59
2023/05/12 17:14:27;;;;;;;6.15;4.03;;;;;;;14.88;61.89;99951.78;10407548;28;20037;-59
2023/05/12 17:19:29;;;;;;;5.75;3.53;;;;;;;15.03;60.91;99950.56;10405543;28;20045;-59
2023/05/12 17:24:33;;;;;;;6.97;4.38;;;;;;;15.23;62.18;99944.59;10407849;28;20378;-59
2023/05/12 17:29:35;;;;;;;6.85;4.30;;;;;;;15.31;61.93;99960.63;10404172;28;20046;-59
2023/05/12 17:34:36;;;;;;;8.88;5.68;;;;;;;14.96;62.28;99970.47;10403750;28;20049;-60
2023/05/12 17:39:40;;;;;;;8.23;4.00;;;;;;;14.88;62.48;99978.09;10424685;28;20210;-59
2023/05/12 17:44:42;;;;;;;7.18;4.20;;;;;;;14.77;63.07;99971.03;10407886;28;20565;-59
2023/05/12 17:49:44;;;;;;;11.02;4.63;;;;;;;14.80;62.63;99980.50;10404467;28;20064;-60
2023/05/12 17:54:46;;;;;;;5.28;4.13;;;;;;;15.02;63.11;99983.16;10391655;28;20457;-59
2023/05/12 17:59:48;;;;;;;7.65;5.70;;;;;;;15.13;62.97;99986.63;10407803;28;20042;-59
2023/05/12 18:04:50;;;;;;;13.52;8.77;;;;;;;15.08;63.34;99991.38;10393064;28;20045;-60
2023/05/12 18:09:52;;;;;;;14.98;8.23;;;;;;;15.03;63.72;99988.28;10408228;28;20103;-59
2023/05/12 18:14:54;;;;;;;10.25;5.47;;;;;;;14.94;63.32;99988.16;10401519;28;20620;-59
2023/05/12 18:19:55;;;;;;;7.53;4.95;;;;;;;15.01;62.86;99992.00;10420542;28;20055;-60
2023/05/12 18:24:57;;;;;;;9.93;4.68;;;;;;;14.77;62.51;99994.72;10417905;28;20059;-59
2023/05/12 18:29:59;;;;;;;6.78;5.05;;;;;;;14.68;63.41;99991.94;10406010;28;20034;-59
2023/05/12 18:35:01;;;;;;;7.97;4.00;;;;;;;14.55;62.86;99986.78;10405575;28;20041;-59
2023/05/12 18:40:03;;;;;;;8.18;5.28;;;;;;;14.61;63.90;99996.84;10401430;28;20159;-59
2023/05/12 18:45:06;;;;;;;7.45;4.10;;;;;;;14.64;62.89;99996.59;10400804;28;20667;-60
2023/05/12 18:50:09;;;;;;;8.88;4.60;;;;;;;14.73;63.52;100000.31;10398666;28;20041;-59
2023/05/12 18:55:11;;;;;;;6.28;4.80;;;;;;;14.80;63.53;100007.63;10414505;28;20041;-59
2023/05/12 19:00:14;;;;;;;9.30;5.22;;;;;;;14.57;63.84;100014.63;10403802;28;20387;-59
2023/05/12 19:05:15;;;;;;;9.85;6.05;;;;;;;14.62;64.38;100021.34;10400050;28;20080;-59
2023/05/12 19:10:17;;;;;;;7.78;4.75;;;;;;;14.54;63.67;100032.44;10386328;28;20109;-58
2023/05/12 19:15:20;;;;;;;7.45;4.45;;;;;;;14.49;63.27;100043.31;10425383;28;20047;-59
2023/05/12 19:20:22;;;;;;;11.13;5.85;;;;;;;14.25;64.03;100060.88;10396078;28;20906;-59
2023/05/12 19:25:25;;;;;;;7.00;5.15;;;;;;;14.14;64.66;100071.34;10397391;28;20612;-58
2023/05/12 19:30:27;;;;;;;7.70;5.65;;;;;;;14.25;64.60;100078.44;10398887;28;20041;-58
2023/05/12 19:35:29;;;;;;;9.27;5.47;;;;;;;14.26;64.86;100077.50;10407265;28;20132;-57
2023/05/12 19:40:31;;;;;;;9.52;5.95;;;;;;;14.16;65.46;100087.84;10404788;28;20409;-59
2023/05/12 19:45:33;;;;;;;12.50;6.50;;;;;;;14.20;65.28;100091.94;10401831;28;20041;-59
2023/05/12 19:50:35;;;;;;;10.00;5.78;;;;;;;14.20;65.38;100097.22;10401796;28;20045;-59
2023/05/12 19:55:36;;;;;;;9.98;7.35;;;;;;;14.04;64.97;100094.00;10419824;28;20104;-59
2023/05/12 20:00:38;;;;;;;10.05;5.90;;;;;;;13.86;65.74;100094.47;10431747;28;20041;-59
2023/05/12 20:05:40;;;;;;;9.32;5.63;;;;;;;13.94;65.72;100097.38;10430228;28;20489;-59
2023/05/12 20:10:42;;;;;;;8.95;5.82;;;;;;;13.99;65.45;100088.22;10431512;28;20128;-60
2023/05/12 20:15:44;;;;;;;8.45;6.07;;;;;;;13.95;65.50;100089.38;10433165;28;20140;-59
2023/05/12 20:20:46;;;;;;;10.85;6.93;;;;;;;13.93;65.50;100099.16;10433205;28;20045;-59
2023/05/12 20:25:47;;;;;;;8.95;6.78;;;;;;;13.90;65.73;100091.50;10401920;28;20441;-59
2023/05/12 20:30:49;;;;;;;13.98;8.57;;;;;;;13.80;65.46;100098.34;10399274;28;20124;-59
2023/05/12 20:35:51;;;;;;;12.75;8.73;;;;;;;13.46;65.74;100094.59;10391967;28;20448;-59
2023/05/12 20:40:53;;;;;;;9.45;6.63;;;;;;;13.44;66.50;100100.91;10406468;28;20038;-59
2023/05/12 20:45:55;;;;;;;8.18;6.30;;;;;;;13.37;66.18;100099.63;10385826;28;20111;-58
2023/05/12 20:50:57;;;;;;;8.57;7.00;;;;;;;13.26;66.21;100110.84;10387267;28;20333;-58
2023/05/12 20:55:59;;;;;;;13.90;8.32;;;;;;;13.18;66.52;100109.69;10416403;28;20084;-58
2023/05/12 21:01:03;;;;;;;9.07;6.00;;;;;;;12.99;66.13;100104.81;10433349;28;20061;-58
2023/05/12 21:06:04;;;;;;;11.48;7.60;;;;;;;12.86;66.77;100117.91;10404286;28;20444;-58
2023/05/12 21:11:16;;;;;;;12.82;9.77;;;;;;;12.69;66.68;100112.97;10407849;28;20128;-58
2023/05/12 21:16:18;;;;;;;9.20;7.45;;;;;;;12.67;67.16;100119.25;10403024;28;20053;-58
2023/05/12 21:21:20;;;;;;;8.23;6.43;;;;;;;12.65;67.05;100111.47;10401269;28;20045;-58
2023/05/12 21:26:22;;;;;;;11.65;6.43;;;;;;;12.65;67.25;100108.84;10380992;28;20128;-58
2023/05/12 21:31:24;;;;;;;10.57;6.28;;;;;;;12.60;66.96;100118.78;10393676;28;20041;-58
2023/05/12 21:36:26;;;;;;;14.30;7.65;;;;;;;12.50;66.71;100115.09;10394360;28;20468;-58
2023/05/12 21:41:28;;;;;;;14.27;8.77;;;;;;;12.26;66.84;100121.88;10393780;28;20041;-58
2023/05/12 21:46:29;;;;;;;12.27;7.25;;;;;;;12.24;67.43;100125.53;10393352;28;20050;-58
2023/05/12 21:51:32;;;;;;;18.83;10.48;;;;;;;12.22;66.87;100128.25;10395048;28;20040;-58
2023/05/12 21:56:34;;;;;;;12.05;8.10;;;;;;;12.24;67.09;100136.00;10401069;28;20509;-58
2023/05/12 22:01:35;;;;;;;18.23;8.55;;;;;;;12.23;66.81;100137.81;10400665;28;20072;-58
2023/05/12 22:06:37;;;;;;;13.73;8.40;;;;;;;12.15;67.04;100133.03;10391832;28;20042;-58
2023/05/12 22:11:39;;;;;;;32.28;11.73;;;;;;;12.12;66.84;100135.00;10411485;28;20042;-58
2023/05/12 22:16:41;;;;;;;22.40;11.55;;;;;;;12.07;67.04;100129.19;10460047;28;20049;-58
2023/05/12 22:21:43;;;;;;;11.68;9.82;;;;;;;12.03;66.76;100132.97;10396746;28;20367;-58
2023/05/12 22:26:45;;;;;;;22.63;12.93;;;;;;;12.00;67.10;100135.78;10415920;28;20698;-58
2023/05/12 22:31:47;;;;;;;23.83;11.68;;;;;;;11.92;67.45;100143.28;10407907;28;20603;-58
2023/05/12 22:36:49;;;;;;;14.00;8.65;;;;;;;11.89;67.39;100146.06;10408497;28;20049;-57
2023/05/12 22:41:50;;;;;;;12.05;9.15;;;;;;;11.79;67.25;100150.19;10395210;28;20853;-58
2023/05/12 22:46:52;;;;;;;12.13;6.32;;;;;;;11.71;67.36;100155.91;10405497;28;20175;-58
2023/05/12 22:51:54;;;;;;;12.00;7.57;;;;;;;11.66;67.16;100157.97;10391591;28;20048;-56
2023/05/12 22:56:56;;;;;;;234.05;20.17;;;;;;;11.55;67.11;100147.31;10390448;28;20076;-58
2023/05/12 23:01:57;;;;;;;13.18;9.20;;;;;;;11.46;67.29;100147.03;10407336;28;20053;-58
2023/05/12 23:06:59;;;;;;;15.23;9.25;;;;;;;11.36;67.43;100156.38;10390434;28;20050;-57
2023/05/12 23:12:02;;;;;;;13.27;8.38;;;;;;;11.27;67.08;100163.78;10390316;28;20041;-58
2023/05/12 23:17:04;;;;;;;9.93;7.28;;;;;;;11.13;67.46;100160.34;10389129;28;20433;-59
2023/05/12 23:22:06;;;;;;;50.08;10.23;;;;;;;11.08;67.56;100163.22;10393683;28;20053;-58